Time;durP1;ratioP1;P1;durP2;ratioP2;P2;SDS_P1;SDS_P2;PMS_P1;PMS_P2;Temp;Humidity;BMP_temperature;BMP_pressure;BME280_temperature;BME280_humidity;BME280_pressure;Samples;Min_cycle;Max_cycle;Signal;HPM_P1;HPM_P2
2023/07/17 00:02:27;;;;;;;6.92;4.80;;;;;;;16.54;66.70;100841.92;1827226;78;21330;-53
2023/07/17 00:05:33;;;;;;;7.37;4.60;;;;;;;16.53;66.79;100838.81;1827993;78;21343;-54
2023/07/17 00:08:39;;;;;;;8.15;4.67;;;;;;;16.49;66.77;100840.30;1827030;78;21173;-54
2023/07/17 00:11:46;;;;;;;10.00;4.80;;;;;;;16.42;66.72;100844.36;1827450;78;21315;-52
2023/07/17 00:14:53;;;;;;;8.58;4.87;;;;;;;16.37;66.76;100845.49;1828121;78;21169;-53
2023/07/17 00:18:00;;;;;;;8.70;4.92;;;;;;;16.34;66.94;100845.90;1827986;78;21231;-54
2023/07/17 00:21:08;;;;;;;8.20;5.15;;;;;;;16.34;67.11;100842.62;1827133;78;21343;-54
2023/07/17 00:24:15;;;;;;;8.18;5.25;;;;;;;16.32;67.29;100844.72;1827855;78;21327;-53
2023/07/17 00:27:21;;;;;;;7.35;4.85;;;;;;;16.30;67.33;100842.67;1827590;78;21331;-54
2023/07/17 00:30:25;;;;;;;8.10;5.28;;;;;;;16.27;67.36;100843.59;1827755;78;21366;-53
2023/07/17 00:33:31;;;;;;;7.50;5.03;;;;;;;16.25;67.49;100849.33;1828184;78;21307;-54
2023/07/17 00:36:39;;;;;;;7.95;5.12;;;;;;;16.23;67.50;100845.07;1827213;78;21327;-54
2023/07/17 00:39:45;;;;;;;11.63;4.75;;;;;;;16.18;67.59;100841.53;1826971;78;21311;-54
2023/07/17 00:42:52;;;;;;;7.40;4.95;;;;;;;16.15;67.63;100847.47;1828013;78;21355;-53
2023/07/17 00:45:59;;;;;;;8.50;4.47;;;;;;;16.12;67.87;100851.16;1807022;78;21391;-54
2023/07/17 00:49:09;;;;;;;6.30;4.55;;;;;;;16.10;67.91;100851.87;1826034;78;21316;-54
2023/07/17 00:52:17;;;;;;;6.30;4.35;;;;;;;16.05;67.85;100851.61;1825575;78;21282;-53
2023/07/17 00:55:23;;;;;;;7.20;4.75;;;;;;;16.00;67.82;100856.36;1825368;78;21335;-53
2023/07/17 00:58:27;;;;;;;7.78;4.85;;;;;;;15.96;67.94;100851.44;1803366;78;21300;-53
2023/07/17 01:01:34;;;;;;;5.65;4.53;;;;;;;15.92;67.94;100855.66;1825771;78;21323;-53
2023/07/17 01:04:40;;;;;;;8.75;5.10;;;;;;;15.90;68.03;100859.14;1825614;78;21403;-53
2023/07/17 01:07:46;;;;;;;5.70;4.45;;;;;;;15.87;68.14;100865.06;1825777;78;21319;-54
2023/07/17 01:10:51;;;;;;;9.30;4.72;;;;;;;15.85;68.28;100853.35;1825408;78;21823;-52
2023/07/17 01:14:01;;;;;;;6.55;4.60;;;;;;;15.83;68.38;100867.36;1825614;78;21359;-53
2023/07/17 01:17:01;;;;;;;9.13;5.22;;;;;;;15.83;68.59;100864.59;1825970;78;21327;-54
2023/07/17 01:20:10;;;;;;;7.58;4.92;;;;;;;15.80;68.58;100862.75;1825601;78;21812;-53
2023/07/17 01:23:16;;;;;;;6.78;4.67;;;;;;;15.77;68.59;100863.15;1825290;78;21331;-53
2023/07/17 01:26:24;;;;;;;7.62;4.85;;;;;;;15.76;68.70;100866.42;1825655;78;21335;-53
2023/07/17 01:29:33;;;;;;;7.53;4.70;;;;;;;15.75;68.83;100866.11;1825390;78;21327;-53
2023/07/17 01:32:40;;;;;;;5.83;4.42;;;;;;;15.74;68.88;100863.55;1825590;78;21327;-53
2023/07/17 01:35:48;;;;;;;6.05;4.65;;;;;;;15.69;68.89;100858.62;1825425;78;21173;-53
2023/07/17 01:38:56;;;;;;;8.08;4.45;;;;;;;15.70;69.07;100858.08;1825783;78;21938;-53
2023/07/17 01:42:03;;;;;;;6.92;4.67;;;;;;;15.69;69.17;100856.38;1825684;78;21193;-53
2023/07/17 01:45:11;;;;;;;6.55;5.50;;;;;;;15.66;69.09;100856.77;1825316;78;21200;-52
2023/07/17 01:48:17;;;;;;;7.85;5.03;;;;;;;15.63;69.21;100858.03;1825740;78;21208;-54
2023/07/17 01:51:23;;;;;;;6.55;4.58;;;;;;;15.64;69.36;100854.73;1839117;78;21326;-53
2023/07/17 01:54:30;;;;;;;6.92;4.50;;;;;;;15.63;69.49;100856.66;1838492;78;21331;-53
2023/07/17 01:57:35;;;;;;;7.03;4.67;;;;;;;15.64;69.60;100864.39;1838783;78;21400;-53
2023/07/17 02:00:43;;;;;;;7.75;4.80;;;;;;;15.63;69.68;100859.93;1839124;78;21835;-53
2023/07/17 02:03:50;;;;;;;12.15;4.87;;;;;;;15.62;69.78;100860.45;1838647;78;21802;-53
2023/07/17 02:06:56;;;;;;;9.65;7.12;;;;;;;15.61;69.83;100862.89;1838611;78;21914;-54
2023/07/17 02:10:03;;;;;;;7.83;6.12;;;;;;;15.61;69.85;100864.78;1838312;78;21339;-53
2023/07/17 02:13:09;;;;;;;6.62;4.75;;;;;;;15.57;69.72;100873.98;1839194;78;21411;-54
2023/07/17 02:16:16;;;;;;;8.98;4.80;;;;;;;15.55;69.72;100865.58;1838933;78;21319;-54
2023/07/17 02:19:23;;;;;;;8.60;4.60;;;;;;;15.55;69.82;100871.96;1838349;78;21867;-52
2023/07/17 02:22:30;;;;;;;5.28;4.20;;;;;;;15.56;69.91;100875.04;1839072;78;21823;-54
2023/07/17 02:25:38;;;;;;;5.33;4.22;;;;;;;15.56;69.96;100876.42;1839104;78;21347;-54
2023/07/17 02:28:46;;;;;;;5.95;4.72;;;;;;;15.58;70.15;100870.19;1838659;78;21310;-53
2023/07/17 02:31:53;;;;;;;5.83;4.12;;;;;;;15.61;70.25;100871.69;1837877;77;21305;-54
2023/07/17 02:34:59;;;;;;;6.53;4.17;;;;;;;15.66;70.37;100869.20;1806005;79;21850;-53
2023/07/17 02:38:05;;;;;;;6.62;4.17;;;;;;;15.69;70.50;100868.28;1805628;79;21385;-52
2023/07/17 02:41:14;;;;;;;7.30;4.50;;;;;;;15.75;70.62;100873.01;1805899;79;21354;-52
2023/07/17 02:44:20;;;;;;;13.53;4.87;;;;;;;15.79;70.69;100875.69;1805671;79;21378;-52
2023/07/17 02:47:27;;;;;;;10.65;4.83;;;;;;;15.83;70.76;100882.55;1805671;79;21422;-53
2023/07/17 02:50:34;;;;;;;10.05;6.45;;;;;;;15.89;70.88;100878.98;1802929;79;21356;-53
2023/07/17 02:53:40;;;;;;;11.55;5.28;;;;;;;15.96;70.95;100882.67;1792499;80;21335;-52
2023/07/17 02:56:47;;;;;;;9.50;5.10;;;;;;;16.03;71.04;100884.95;1792312;80;21879;-53
2023/07/17 02:59:54;;;;;;;6.55;5.20;;;;;;;16.09;71.11;100882.77;1792276;80;21359;-53
2023/07/17 03:03:01;;;;;;;8.13;4.97;;;;;;;16.16;71.17;100882.31;1792359;80;21359;-53
2023/07/17 03:06:08;;;;;;;8.03;5.58;;;;;;;16.24;71.22;100886.83;1792642;80;21933;-54
2023/07/17 03:09:14;;;;;;;11.40;5.42;;;;;;;16.32;71.38;100881.16;1793211;79;21878;-52
2023/07/17 03:12:19;;;;;;;7.75;5.20;;;;;;;16.41;71.49;100886.33;1792942;80;21339;-54
2023/07/17 03:15:27;;;;;;;11.15;5.75;;;;;;;16.49;71.52;100879.82;1792971;80;21402;-53
2023/07/17 03:18:34;;;;;;;8.05;5.15;;;;;;;16.59;71.58;100888.62;1792900;80;21327;-52
2023/07/17 03:21:39;;;;;;;10.98;5.87;;;;;;;16.67;71.62;100892.61;1793182;80;21335;-52
2023/07/17 03:24:45;;;;;;;10.43;6.50;;;;;;;16.76;71.70;100885.02;1793165;79;21483;-52
2023/07/17 03:27:53;;;;;;;12.90;5.05;;;;;;;16.86;71.75;100886.86;1793100;80;21204;-49
2023/07/17 03:30:58;;;;;;;8.23;5.22;;;;;;;16.94;71.75;100895.00;1793078;80;21355;-51
2023/07/17 03:34:06;;;;;;;11.60;5.58;;;;;;;17.01;71.75;100892.61;1792819;80;22204;-51
2023/07/17 03:37:13;;;;;;;9.50;4.75;;;;;;;17.08;71.85;100887.95;1793243;80;21350;-52
2023/07/17 03:40:19;;;;;;;7.80;4.50;;;;;;;17.13;71.92;100888.19;1792999;80;21350;-51
2023/07/17 03:43:24;;;;;;;7.58;5.05;;;;;;;17.23;72.04;100893.34;1792979;80;21366;-53
2023/07/17 03:46:30;;;;;;;11.18;5.28;;;;;;;17.31;72.08;100895.41;1793144;80;21374;-52
2023/07/17 03:49:36;;;;;;;12.53;5.92;;;;;;;17.37;72.06;100893.72;1793126;80;21405;-52
2023/07/17 03:52:42;;;;;;;7.17;4.75;;;;;;;17.43;72.05;100899.80;1779706;79;21389;-52
2023/07/17 03:55:50;;;;;;;9.63;5.17;;;;;;;17.48;71.98;100895.91;1769350;81;21263;-52
2023/07/17 03:58:57;;;;;;;14.05;6.00;;;;;;;17.55;72.05;100899.57;1769123;81;21379;-52
2023/07/17 04:02:04;;;;;;;8.50;6.15;;;;;;;17.64;72.18;100899.69;1769260;81;21231;-52
2023/07/17 04:05:11;;;;;;;8.63;5.55;;;;;;;17.76;72.30;100903.55;1794941;79;21724;-52
2023/07/17 04:08:17;;;;;;;9.93;5.78;;;;;;;17.86;72.36;100899.33;1800365;79;21302;-52
2023/07/17 04:11:24;;;;;;;12.28;5.72;;;;;;;17.95;72.30;100907.44;1800754;79;21200;-52
2023/07/17 04:14:31;;;;;;;7.08;5.30;;;;;;;18.05;72.36;100910.63;1800798;79;21697;-53
2023/07/17 04:17:33;;;;;;;14.47;5.45;;;;;;;18.16;72.50;100911.38;1800259;79;21212;-53
2023/07/17 04:20:41;;;;;;;13.65;5.45;;;;;;;18.26;72.58;100904.38;1799967;79;21188;-53
2023/07/17 04:23:50;;;;;;;10.63;5.37;;;;;;;18.38;72.64;100910.14;1783756;79;21390;-53
2023/07/17 04:26:58;;;;;;;11.35;5.40;;;;;;;18.49;72.69;100899.83;1799964;79;21232;-52
2023/07/17 04:30:07;;;;;;;13.03;5.15;;;;;;;18.62;72.69;100906.72;1800184;79;21279;-53
2023/07/17 04:33:07;;;;;;;9.73;5.15;;;;;;;18.72;72.67;100902.45;1800020;79;21214;-53
2023/07/17 04:36:16;;;;;;;10.08;4.80;;;;;;;18.84;72.68;100914.59;1779208;79;21339;-53
2023/07/17 04:39:21;;;;;;;10.55;5.05;;;;;;;18.95;72.70;100904.20;1799842;79;21604;-51
2023/07/17 04:42:29;;;;;;;13.45;6.83;;;;;;;19.06;72.69;100906.83;1800332;79;21342;-53
2023/07/17 04:45:35;;;;;;;9.33;6.67;;;;;;;19.18;72.66;100909.27;1800536;79;22065;-53
2023/07/17 04:48:44;;;;;;;8.55;4.75;;;;;;;19.28;72.71;100906.37;1798455;79;22114;-51
2023/07/17 04:51:51;;;;;;;5.97;4.17;;;;;;;19.42;72.74;100906.32;1792695;79;21181;-52
2023/07/17 04:54:58;;;;;;;6.12;4.50;;;;;;;19.53;72.70;100905.63;1813255;78;21184;-52
2023/07/17 04:58:03;;;;;;;8.18;4.92;;;;;;;19.64;72.66;100907.70;1824197;78;21916;-50
2023/07/17 05:01:23;;;;;;;6.10;4.30;;;;;;;19.76;72.63;100907.30;1826693;78;21351;-49
2023/07/17 05:04:30;;;;;;;10.05;4.62;;;;;;;19.88;72.63;100898.06;1822750;78;21911;-47
2023/07/17 05:07:37;;;;;;;7.40;4.47;;;;;;;20.01;72.64;100899.90;1816707;78;21335;-48
2023/07/17 05:10:42;;;;;;;5.92;4.28;;;;;;;20.14;72.62;100901.20;1827282;78;21387;-47
2023/07/17 05:13:49;;;;;;;8.95;4.47;;;;;;;20.27;72.60;100905.28;1815863;77;21186;-46
2023/07/17 05:16:55;;;;;;;7.08;4.42;;;;;;;20.38;72.57;100898.98;1824413;77;21425;-47
2023/07/17 05:20:09;;;;;;;6.92;4.00;;;;;;;20.50;72.50;100898.56;1829515;78;21361;-48
2023/07/17 05:23:19;;;;;;;8.13;4.58;;;;;;;20.59;72.44;100892.48;1828080;77;21343;-46
2023/07/17 05:26:29;;;;;;;6.47;4.40;;;;;;;20.71;72.47;100898.13;1831347;77;21492;-45
2023/07/17 05:29:40;;;;;;;12.33;4.75;;;;;;;20.82;72.41;100893.77;1847423;77;21302;-45
2023/07/17 05:32:55;;;;;;;8.00;5.25;;;;;;;20.92;72.38;100892.14;1764011;80;21256;-50
2023/07/17 05:36:11;;;;;;;8.35;4.67;;;;;;;21.04;72.33;100890.87;1826671;78;21477;-46
2023/07/17 05:39:17;;;;;;;8.33;5.00;;;;;;;21.16;72.30;100892.65;1827379;77;21821;-46
2023/07/17 05:42:23;;;;;;;7.37;4.35;;;;;;;21.30;72.33;100891.40;1835804;78;21198;-46
2023/07/17 05:45:29;;;;;;;7.03;4.05;;;;;;;21.43;72.35;100895.42;1802544;77;21195;-47
2023/07/17 05:48:38;;;;;;;5.20;3.45;;;;;;;21.56;72.29;100889.69;1808537;78;21749;-45
2023/07/17 05:51:43;;;;;;;7.67;3.42;;;;;;;21.67;72.15;100886.09;1837160;78;21341;-48
2023/07/17 05:54:48;;;;;;;5.08;3.55;;;;;;;21.79;72.03;100891.20;1824945;77;21389;-45
2023/07/17 05:57:56;;;;;;;4.83;3.35;;;;;;;21.89;71.99;100887.30;1825988;77;21350;-46
2023/07/17 06:01:05;;;;;;;4.78;3.40;;;;;;;22.00;71.90;100889.81;1800669;78;21338;-46
2023/07/17 06:04:11;;;;;;;3.60;3.15;;;;;;;22.10;71.78;100890.92;1821040;78;21359;-46
2023/07/17 06:07:17;;;;;;;5.55;3.45;;;;;;;22.20;71.69;100881.44;1807455;78;21160;-45
2023/07/17 06:10:23;;;;;;;4.53;3.72;;;;;;;22.32;71.61;100885.66;1825199;77;21191;-45
2023/07/17 06:13:28;;;;;;;4.85;3.17;;;;;;;22.43;71.47;100881.16;1821396;77;21730;-46
2023/07/17 06:16:36;;;;;;;6.55;3.35;;;;;;;22.53;71.35;100880.92;1802371;78;21549;-45
2023/07/17 06:19:41;;;;;;;7.35;4.00;;;;;;;22.64;71.28;100882.02;1812006;78;21188;-45
2023/07/17 06:22:47;;;;;;;5.20;3.40;;;;;;;22.74;71.15;100878.08;1768051;80;21192;-46
2023/07/17 06:25:55;;;;;;;6.35;3.02;;;;;;;22.85;71.07;100884.20;1763373;81;21570;-45
2023/07/17 06:29:02;;;;;;;9.23;3.60;;;;;;;22.97;71.00;100880.84;1824733;78;21729;-45
2023/07/17 06:32:08;;;;;;;4.58;3.45;;;;;;;23.08;70.92;100877.18;1826379;78;21331;-45
2023/07/17 06:35:16;;;;;;;6.08;3.30;;;;;;;23.19;70.78;100880.50;1783017;78;21398;-46
2023/07/17 06:38:31;;;;;;;3.92;2.92;;;;;;;23.30;70.69;100882.45;1796407;78;21700;-47
2023/07/17 06:41:37;;;;;;;4.85;2.95;;;;;;;23.39;70.48;100876.77;1809164;78;21322;-45
2023/07/17 06:44:46;;;;;;;5.42;2.90;;;;;;;23.46;70.19;100881.68;1808867;78;21232;-46
2023/07/17 06:47:51;;;;;;;7.47;3.27;;;;;;;23.55;70.04;100880.19;1823709;78;21190;-47
2023/07/17 06:50:57;;;;;;;5.25;2.72;;;;;;;23.67;69.92;100870.36;1814818;77;21674;-46
2023/07/17 06:54:03;;;;;;;4.37;2.92;;;;;;;23.77;69.79;100881.19;1823643;77;21809;-46
2023/07/17 06:57:09;;;;;;;5.62;3.12;;;;;;;23.89;69.60;100882.54;1832651;76;21413;-46
2023/07/17 07:00:15;;;;;;;3.77;2.95;;;;;;;23.99;69.36;100877.18;1836043;77;21911;-46
2023/07/17 07:03:21;;;;;;;6.33;2.85;;;;;;;24.07;69.14;100876.20;1819789;78;21334;-47
2023/07/17 07:06:28;;;;;;;6.12;2.75;;;;;;;24.13;68.88;100879.41;1838015;77;21338;-46
2023/07/17 07:09:35;;;;;;;5.00;2.70;;;;;;;24.21;68.63;100878.14;1837621;78;21342;-46
2023/07/17 07:12:42;;;;;;;6.47;3.17;;;;;;;24.29;68.39;100876.33;1823129;78;21872;-46
2023/07/17 07:15:54;;;;;;;6.50;2.60;;;;;;;24.38;68.16;100882.66;1821279;78;21200;-46
2023/07/17 07:18:59;;;;;;;5.08;3.33;;;;;;;24.45;67.95;100880.52;1835707;78;21473;-46
2023/07/17 07:22:07;;;;;;;19.52;15.83;;;;;;;24.53;67.79;100868.06;1822984;78;21374;-46
2023/07/17 07:25:15;;;;;;;8.30;3.27;;;;;;;24.60;67.55;100864.52;1814283;77;21858;-48
2023/07/17 07:28:24;;;;;;;4.55;2.80;;;;;;;24.67;67.32;100872.24;1823257;78;21288;-46
2023/07/17 07:31:30;;;;;;;5.47;2.52;;;;;;;24.73;67.06;100869.27;1808381;78;21382;-45
2023/07/17 07:34:41;;;;;;;4.45;2.40;;;;;;;24.79;66.75;100872.98;1828288;77;21354;-45
2023/07/17 07:37:49;;;;;;;3.92;2.30;;;;;;;24.85;66.46;100868.60;1814943;78;21351;-47
2023/07/17 07:40:57;;;;;;;5.17;2.42;;;;;;;24.92;66.19;100871.22;1819937;77;21370;-46
2023/07/17 07:44:06;;;;;;;4.05;1.90;;;;;;;24.98;65.86;100859.84;1814150;77;21351;-46
2023/07/17 07:47:14;;;;;;;6.72;4.03;;;;;;;25.04;65.58;100863.00;1812807;78;21347;-47
2023/07/17 07:50:20;;;;;;;6.03;2.80;;;;;;;25.10;65.21;100861.67;1792093;79;21205;-46
2023/07/17 07:53:29;;;;;;;9.08;3.30;;;;;;;25.17;64.97;100863.71;1772900;81;21434;-46
2023/07/17 07:56:37;;;;;;;3.75;2.60;;;;;;;25.23;64.67;100857.92;1825080;77;21418;-47
2023/07/17 07:59:47;;;;;;;5.87;2.42;;;;;;;25.29;64.44;100851.27;1814994;77;21346;-46
2023/07/17 08:02:56;;;;;;;8.58;2.25;;;;;;;25.35;64.12;100856.44;1811971;78;21209;-48
2023/07/17 08:06:04;;;;;;;3.90;1.85;;;;;;;25.39;63.72;100857.05;1823417;77;21828;-48
2023/07/17 08:09:14;;;;;;;2.72;1.85;;;;;;;25.44;63.31;100858.52;1802976;78;21769;-46
2023/07/17 08:12:20;;;;;;;3.52;2.15;;;;;;;25.49;62.93;100857.73;1820511;77;21187;-49
2023/07/17 08:15:28;;;;;;;3.92;2.60;;;;;;;25.54;62.61;100850.78;1815552;78;21398;-54
2023/07/17 08:18:33;;;;;;;3.85;2.37;;;;;;;25.61;62.34;100852.84;1824916;78;21803;-46
2023/07/17 08:21:40;;;;;;;3.47;2.22;;;;;;;25.68;62.06;100847.86;1825084;78;21207;-48
2023/07/17 08:24:47;;;;;;;5.00;2.70;;;;;;;25.72;61.79;100846.23;1825593;77;21300;-51
2023/07/17 08:27:52;;;;;;;2.92;2.30;;;;;;;25.80;61.56;100845.77;1816744;78;21339;-50
2023/07/17 08:31:00;;;;;;;3.08;2.35;;;;;;;25.88;61.33;100847.52;1825172;78;21304;-47
2023/07/17 08:34:11;;;;;;;6.83;2.62;;;;;;;25.93;61.04;100846.72;1825783;78;21343;-48
2023/07/17 08:37:16;;;;;;;5.28;2.65;;;;;;;26.00;60.78;100846.85;1825557;78;21692;-51
2023/07/17 08:40:22;;;;;;;6.08;2.92;;;;;;;26.05;60.41;100845.47;1826822;78;21188;-51
2023/07/17 08:43:30;;;;;;;6.47;2.67;;;;;;;26.10;59.97;100851.72;1827495;78;22183;-49
2023/07/17 08:46:36;;;;;;;2.37;2.02;;;;;;;26.13;59.53;100844.99;1823892;78;21366;-51
2023/07/17 08:49:44;;;;;;;3.10;2.30;;;;;;;26.17;59.19;100846.17;1819186;78;21421;-47
2023/07/17 08:52:51;;;;;;;4.65;2.70;;;;;;;26.24;58.93;100841.73;1820003;78;21172;-50
2023/07/17 08:55:57;;;;;;;4.28;2.27;;;;;;;26.31;58.74;100842.34;1822411;77;21394;-49
2023/07/17 08:59:02;;;;;;;4.47;2.27;;;;;;;26.37;58.40;100839.31;1787585;78;21351;-48
2023/07/17 09:02:11;;;;;;;3.02;2.30;;;;;;;26.45;58.10;100837.97;1768399;80;21196;-47
2023/07/17 09:05:19;;;;;;;3.30;2.27;;;;;;;26.53;57.71;100845.89;1729818;81;21200;-48
2023/07/17 09:08:24;;;;;;;4.12;2.42;;;;;;;26.60;57.39;100837.23;1764964;80;21740;-48
2023/07/17 09:11:30;;;;;;;6.08;2.45;;;;;;;26.65;56.99;100828.34;1751545;81;21273;-48
2023/07/17 09:14:37;;;;;;;3.50;2.47;;;;;;;26.70;56.63;100826.12;1796401;80;21343;-49
2023/07/17 09:17:44;;;;;;;3.90;2.35;;;;;;;26.73;56.28;100823.62;1756168;81;21178;-48
2023/07/17 09:20:50;;;;;;;4.55;2.62;;;;;;;26.81;56.00;100820.30;1754652;80;21952;-49
2023/07/17 09:24:03;;;;;;;5.33;2.87;;;;;;;26.91;55.74;100825.14;1758488;81;21253;-49
2023/07/17 09:27:08;;;;;;;9.57;3.00;;;;;;;26.96;55.40;100817.56;1756892;81;21201;-49
2023/07/17 09:30:18;;;;;;;4.22;2.50;;;;;;;27.00;55.08;100810.30;1780621;79;22145;-49
2023/07/17 09:33:24;;;;;;;3.98;2.60;;;;;;;27.08;54.81;100811.18;1741588;81;21764;-51
2023/07/17 09:36:30;;;;;;;3.17;2.58;;;;;;;27.14;54.48;100810.08;1743540;80;21935;-49
2023/07/17 09:39:37;;;;;;;4.60;3.10;;;;;;;27.19;54.10;100804.48;1754299;80;21383;-48
2023/07/17 09:42:48;;;;;;;5.20;2.87;;;;;;;27.28;53.89;100810.44;1799084;78;21362;-48
2023/07/17 09:45:55;;;;;;;5.37;2.62;;;;;;;27.37;53.56;100808.22;1772190;80;21228;-49
2023/07/17 09:49:01;;;;;;;5.95;3.02;;;;;;;27.45;53.21;100813.31;1793919;79;21786;-48
2023/07/17 09:52:07;;;;;;;4.85;2.83;;;;;;;27.54;52.89;100803.79;1767223;80;21713;-48
2023/07/17 09:55:17;;;;;;;3.37;2.60;;;;;;;27.62;52.66;100808.30;1754730;81;21209;-52
2023/07/17 09:58:23;;;;;;;4.70;3.00;;;;;;;27.71;52.41;100801.02;1777832;79;21214;-50
2023/07/17 10:01:32;;;;;;;5.72;2.80;;;;;;;27.80;52.12;100803.56;1818994;78;21997;-54
2023/07/17 10:04:46;;;;;;;5.72;3.00;;;;;;;27.90;51.87;100801.36;1789351;80;21402;-53
2023/07/17 10:07:53;;;;;;;4.67;3.12;;;;;;;28.00;51.63;100800.53;1799727;77;21200;-54
2023/07/17 10:11:00;;;;;;;5.35;3.12;;;;;;;28.05;51.21;100797.72;1790250;79;21378;-54
2023/07/17 10:14:06;;;;;;;5.28;2.90;;;;;;;28.08;50.91;100799.42;1789712;79;21374;-54
2023/07/17 10:17:12;;;;;;;5.78;3.02;;;;;;;28.14;50.60;100797.44;1804354;78;21338;-54
2023/07/17 10:20:19;;;;;;;6.33;2.67;;;;;;;28.19;50.38;100796.03;1804090;78;21204;-55
2023/07/17 10:23:32;;;;;;;5.30;2.60;;;;;;;28.25;50.16;100794.34;1821708;78;21193;-55
2023/07/17 10:26:39;;;;;;;4.83;2.92;;;;;;;28.35;49.87;100785.05;1780901;80;21777;-55
2023/07/17 10:29:53;;;;;;;4.90;3.00;;;;;;;28.48;49.63;100787.33;1823559;77;21164;-54
2023/07/17 10:33:22;;;;;;;4.95;2.95;;;;;;;28.62;49.42;100782.79;1824960;77;21207;-55
2023/07/17 10:36:50;;;;;;;4.62;2.77;;;;;;;28.73;49.13;100787.28;1825010;77;21311;-55
2023/07/17 10:39:51;;;;;;;4.40;2.83;;;;;;;28.83;48.85;100778.22;1824967;78;21345;-54
2023/07/17 10:42:44;;;;;;;4.15;2.90;;;;;;;28.87;48.43;100778.50;1824507;77;21196;-55
2023/07/17 10:45:51;;;;;;;3.62;2.80;;;;;;;28.90;48.17;100775.09;1823956;77;21292;-56
2023/07/17 10:48:58;;;;;;;4.62;2.62;;;;;;;28.91;47.93;100785.23;1824191;77;21731;-54
2023/07/17 10:52:05;;;;;;;5.05;2.58;;;;;;;28.97;47.63;100775.66;1820654;78;21192;-54
2023/07/17 10:55:15;;;;;;;4.50;2.77;;;;;;;29.01;47.29;100768.30;1805539;78;21285;-57
2023/07/17 10:58:25;;;;;;;4.10;2.75;;;;;;;29.05;46.94;100773.66;1822289;77;21852;-53
2023/07/17 11:01:30;;;;;;;5.20;2.50;;;;;;;29.09;46.68;100769.14;1823404;78;21370;-56
2023/07/17 11:04:38;;;;;;;4.83;2.83;;;;;;;29.15;46.48;100770.80;1828737;77;21358;-56
2023/07/17 11:07:44;;;;;;;3.55;2.80;;;;;;;29.17;46.12;100764.31;1828698;77;21186;-56
2023/07/17 11:10:51;;;;;;;3.55;2.47;;;;;;;29.25;45.97;100759.48;1838089;77;21351;-55
2023/07/17 11:13:56;;;;;;;5.75;4.17;;;;;;;29.34;45.71;100751.23;1836501;78;21895;-56
2023/07/17 11:17:02;;;;;;;4.30;2.58;;;;;;;29.42;45.44;100761.36;1787841;79;21335;-56
2023/07/17 11:20:10;;;;;;;3.70;2.80;;;;;;;29.42;45.15;100764.18;1826771;78;21354;-55
2023/07/17 11:23:20;;;;;;;4.62;2.80;;;;;;;29.46;44.87;100758.25;1822473;77;21902;-55
2023/07/17 11:26:33;;;;;;;4.35;2.65;;;;;;;29.44;44.61;100760.51;1824046;78;21388;-56
2023/07/17 11:29:50;;;;;;;5.97;2.80;;;;;;;29.51;44.54;100764.42;1805501;79;21867;-57
2023/07/17 11:33:10;;;;;;;4.08;3.08;;;;;;;29.55;44.31;100762.13;1804828;79;21923;-55
2023/07/17 11:36:22;;;;;;;5.03;3.15;;;;;;;29.64;44.11;100756.17;1817797;78;21342;-56
2023/07/17 11:39:32;;;;;;;5.55;3.12;;;;;;;29.73;43.80;100751.58;1805809;79;21342;-54
2023/07/17 11:42:37;;;;;;;8.18;3.37;;;;;;;29.76;43.55;100756.67;1804790;79;21358;-56
2023/07/17 11:45:43;;;;;;;4.50;3.15;;;;;;;29.76;43.27;100747.34;1833836;78;21208;-55
2023/07/17 11:48:51;;;;;;;4.80;3.35;;;;;;;29.71;42.98;100745.97;1826905;77;21711;-52
2023/07/17 11:51:57;;;;;;;4.92;3.30;;;;;;;29.64;42.76;100742.06;1832676;78;21321;-58
2023/07/17 11:55:04;;;;;;;5.20;3.08;;;;;;;29.64;42.68;100741.17;1832831;78;21907;-56
2023/07/17 11:58:24;;;;;;;6.60;3.20;;;;;;;29.67;42.57;100740.65;1823155;77;21222;-55
2023/07/17 12:01:31;;;;;;;7.35;2.95;;;;;;;29.70;42.32;100740.06;1809062;77;21371;-56
2023/07/17 12:04:41;;;;;;;4.85;2.83;;;;;;;29.67;41.99;100737.23;1732217;81;21884;-56
2023/07/17 12:07:49;;;;;;;4.85;3.40;;;;;;;29.64;41.85;100732.70;1823406;78;21331;-54
2023/07/17 12:10:55;;;;;;;4.00;3.00;;;;;;;29.65;41.66;100737.27;1821797;78;21199;-54
2023/07/17 12:14:02;;;;;;;6.10;3.25;;;;;;;29.64;41.50;100733.59;1820903;77;21180;-55
2023/07/17 12:17:09;;;;;;;4.65;2.85;;;;;;;29.68;41.39;100728.21;1822104;77;21211;-56
2023/07/17 12:20:20;;;;;;;4.83;2.77;;;;;;;29.66;41.14;100738.38;1822128;77;21365;-55
2023/07/17 12:23:26;;;;;;;7.42;3.30;;;;;;;29.59;40.92;100727.12;1810082;78;21378;-58
2023/07/17 12:26:32;;;;;;;5.95;3.00;;;;;;;29.58;40.80;100729.66;1830966;78;21742;-57
2023/07/17 12:29:39;;;;;;;4.37;2.70;;;;;;;29.59;40.71;100731.36;1828022;77;21342;-56
2023/07/17 12:32:47;;;;;;;6.37;3.15;;;;;;;29.56;40.54;100727.71;1822118;77;21346;-55
2023/07/17 12:35:54;;;;;;;5.40;3.12;;;;;;;29.59;40.46;100720.89;1822242;77;21373;-57
2023/07/17 12:39:01;;;;;;;4.60;2.65;;;;;;;29.67;40.46;100720.30;1824761;77;21346;-56
2023/07/17 12:42:07;;;;;;;4.05;2.67;;;;;;;29.74;40.30;100729.85;1821419;77;21492;-55
2023/07/17 12:45:14;;;;;;;5.62;3.20;;;;;;;29.63;40.16;100722.01;1821018;78;21239;-56
2023/07/17 12:48:21;;;;;;;6.03;3.08;;;;;;;29.63;40.16;100722.01;1804846;78;21267;-55
2023/07/17 12:51:30;;;;;;;8.80;3.50;;;;;;;29.63;40.02;100716.92;1825846;78;21334;-54
2023/07/17 12:54:39;;;;;;;4.90;3.33;;;;;;;29.56;39.65;100718.66;1822482;77;21227;-55
2023/07/17 12:57:46;;;;;;;22.13;9.38;;;;;;;29.55;39.39;100711.34;1827586;78;21327;-55
2023/07/17 13:00:52;;;;;;;5.28;3.55;;;;;;;29.55;39.39;100711.34;1825563;77;21388;-55
2023/07/17 13:03:59;;;;;;;11.15;3.83;;;;;;;29.55;39.09;100703.42;1831594;77;21835;-54
2023/07/17 13:07:06;;;;;;;5.50;3.47;;;;;;;29.59;39.66;100710.19;1810799;77;21268;-57
2023/07/17 13:10:13;;;;;;;6.25;3.50;;;;;;;29.59;39.66;100710.19;1820139;78;21868;-55
2023/07/17 13:13:18;;;;;;;5.08;3.45;;;;;;;29.58;39.35;100700.88;1836992;78;21334;-55
2023/07/17 13:16:25;;;;;;;7.33;3.70;;;;;;;29.59;39.28;100704.55;1837345;78;21343;-57
2023/07/17 13:19:32;;;;;;;5.47;3.42;;;;;;;29.56;39.41;100697.48;1819465;77;21844;-55
2023/07/17 13:22:37;;;;;;;6.70;4.00;;;;;;;29.53;39.07;100699.48;1808532;78;21211;-55
2023/07/17 13:25:45;;;;;;;7.40;3.40;;;;;;;29.53;39.07;100699.48;1809537;79;21211;-56
2023/07/17 13:28:52;;;;;;;12.70;10.93;;;;;;;29.54;39.16;100695.55;1816529;78;21219;-56
2023/07/17 13:31:59;;;;;;;4.58;3.50;;;;;;;29.54;39.16;100695.55;1829887;78;21868;-55
2023/07/17 13:35:06;;;;;;;9.03;3.50;;;;;;;29.64;39.41;100696.90;1820109;78;21353;-57
2023/07/17 13:38:14;;;;;;;7.65;3.80;;;;;;;29.64;39.41;100696.90;1834804;77;21498;-57
2023/07/17 13:41:52;;;;;;;9.13;4.62;;;;;;;29.69;39.20;100682.75;1823063;77;21347;-60
2023/07/17 13:44:59;;;;;;;4.20;3.52;;;;;;;29.71;39.16;100688.95;1837726;78;21379;-61
2023/07/17 13:48:06;;;;;;;7.25;3.10;;;;;;;29.66;39.00;100684.76;1837971;78;21953;-58
2023/07/17 13:51:13;;;;;;;5.08;3.77;;;;;;;29.64;38.96;100673.44;1805785;79;21266;-59
2023/07/17 13:54:20;;;;;;;5.28;3.20;;;;;;;29.61;38.93;100679.67;1818900;78;21389;-63
2023/07/17 13:57:27;;;;;;;8.60;3.72;;;;;;;29.56;38.94;100681.14;1821902;77;21257;-64
2023/07/17 14:00:34;;;;;;;5.53;3.55;;;;;;;29.51;38.88;100677.77;1822472;77;21338;-61
2023/07/17 14:03:41;;;;;;;5.33;3.50;;;;;;;29.48;38.89;100667.06;1822501;76;21179;-57
2023/07/17 14:06:49;;;;;;;4.85;3.45;;;;;;;29.48;38.87;100660.61;1822679;78;21739;-58
2023/07/17 14:09:58;;;;;;;4.50;3.27;;;;;;;29.49;38.80;100658.05;1822666;77;21318;-61
2023/07/17 14:13:08;;;;;;;6.05;3.50;;;;;;;29.50;38.80;100660.58;1822246;78;21866;-57
2023/07/17 14:16:16;;;;;;;6.62;2.90;;;;;;;29.48;38.71;100657.20;1823925;78;21208;-57
2023/07/17 14:19:22;;;;;;;6.87;3.55;;;;;;;29.45;38.63;100645.09;1805176;79;21354;-58
2023/07/17 14:22:28;;;;;;;5.92;3.37;;;;;;;29.44;38.54;100637.77;1821276;78;21878;-59
2023/07/17 14:25:34;;;;;;;4.35;3.22;;;;;;;29.44;38.54;100637.77;1805593;79;21370;-59
2023/07/17 14:28:41;;;;;;;6.40;3.12;;;;;;;29.47;38.50;100639.14;1810041;78;21407;-57
2023/07/17 14:31:49;;;;;;;5.92;3.37;;;;;;;29.48;38.49;100633.80;1838083;77;21894;-56